sensor_id;sensor_type;location;lat;lon;timestamp;pressure;altitude;pressure_sealevel;temperature;humidity
56668;BME280;42542;48.360;10.958;2023-07-13T00:01:52;96081.00;;;19.01;100.00
56668;BME280;42542;48.360;10.958;2023-07-13T00:05:08;96091.00;;;19.00;100.00
56668;BME280;42542;48.360;10.958;2023-07-13T00:08:17;96089.94;;;19.01;100.00
56668;BME280;42542;48.360;10.958;2023-07-13T00:11:24;96090.75;;;19.02;100.00
56668;BME280;42542;48.360;10.958;2023-07-13T00:14:29;96080.75;;;19.02;100.00
56668;BME280;42542;48.360;10.958;2023-07-13T00:17:41;96077.00;;;19.03;100.00
56668;BME280;42542;48.360;10.958;2023-07-13T00:20:46;96080.75;;;19.02;100.00
56668;BME280;42542;48.360;10.958;2023-07-13T00:23:48;96074.28;;;19.03;100.00
56668;BME280;42542;48.360;10.958;2023-07-13T00:26:50;96077.00;;;19.03;100.00
56668;BME280;42542;48.360;10.958;2023-07-13T00:29:56;96061.78;;;19.02;100.00
56668;BME280;42542;48.360;10.958;2023-07-13T00:32:59;96069.31;;;19.00;100.00
56668;BME280;42542;48.360;10.958;2023-07-13T00:36:20;96069.06;;;19.02;100.00
56668;BME280;42542;48.360;10.958;2023-07-13T00:39:24;96068.50;;;19.00;100.00
56668;BME280;42542;48.360;10.958;2023-07-13T00:42:29;96068.28;;;19.01;100.00
56668;BME280;42542;48.360;10.958;2023-07-13T00:48:47;96075.31;;;19.02;100.00
56668;BME280;42542;48.360;10.958;2023-07-13T00:52:05;96080.16;;;19.00;100.00
56668;BME280;42542;48.360;10.958;2023-07-13T00:55:11;96076.41;;;19.01;100.00
56668;BME280;42542;48.360;10.958;2023-07-13T00:58:17;96076.41;;;19.01;100.00
56668;BME280;42542;48.360;10.958;2023-07-13T01:01:21;96072.03;;;19.00;100.00
56668;BME280;42542;48.360;10.958;2023-07-13T01:04:25;96073.06;;;18.99;100.00
56668;BME280;42542;48.360;10.958;2023-07-13T01:07:31;96077.66;;;18.99;100.00
56668;BME280;42542;48.360;10.958;2023-07-13T01:10:35;96052.66;;;18.97;100.00
56668;BME280;42542;48.360;10.958;2023-07-13T01:13:44;96046.63;;;18.95;100.00
56668;BME280;42542;48.360;10.958;2023-07-13T01:16:47;96054.16;;;18.93;100.00
56668;BME280;42542;48.360;10.958;2023-07-13T01:19:53;96060.63;;;18.92;100.00
56668;BME280;42542;48.360;10.958;2023-07-13T01:22:59;96062.50;;;18.91;100.00
56668;BME280;42542;48.360;10.958;2023-07-13T01:26:08;96064.38;;;18.91;100.00
56668;BME280;42542;48.360;10.958;2023-07-13T01:29:15;96058.31;;;18.89;100.00
56668;BME280;42542;48.360;10.958;2023-07-13T01:32:20;96056.44;;;18.89;100.00
56668;BME280;42542;48.360;10.958;2023-07-13T01:35:30;96046.06;;;18.86;100.00
56668;BME280;42542;48.360;10.958;2023-07-13T01:38:33;96042.53;;;18.86;100.00
56668;BME280;42542;48.360;10.958;2023-07-13T01:41:40;96036.50;;;18.84;100.00
56668;BME280;42542;48.360;10.958;2023-07-13T01:44:42;96043.56;;;18.85;100.00
56668;BME280;42542;48.360;10.958;2023-07-13T01:47:46;96049.88;;;18.79;100.00
56668;BME280;42542;48.360;10.958;2023-07-13T01:50:51;96063.78;;;18.82;100.00
56668;BME280;42542;48.360;10.958;2023-07-13T01:53:53;96073.78;;;18.82;100.00
56668;BME280;42542;48.360;10.958;2023-07-13T01:56:55;96069.41;;;18.81;100.00
56668;BME280;42542;48.360;10.958;2023-07-13T02:00:03;96064.81;;;18.81;100.00
56668;BME280;42542;48.360;10.958;2023-07-13T02:03:15;96061.53;;;18.79;100.00
56668;BME280;42542;48.360;10.958;2023-07-13T02:06:20;96066.31;;;18.77;100.00
56668;BME280;42542;48.360;10.958;2023-07-13T02:09:22;96067.38;;;18.76;100.00
56668;BME280;42542;48.360;10.958;2023-07-13T02:12:24;96068.03;;;18.71;100.00
56668;BME280;42542;48.360;10.958;2023-07-13T02:15:26;96065.31;;;18.71;100.00
56668;BME280;42542;48.360;10.958;2023-07-13T02:18:28;96064.91;;;18.68;100.00
56668;BME280;42542;48.360;10.958;2023-07-13T02:21:31;96070.94;;;18.70;100.00
56668;BME280;42542;48.360;10.958;2023-07-13T02:24:35;96068.06;;;18.65;100.00
56668;BME280;42542;48.360;10.958;2023-07-13T02:27:40;96081.81;;;18.63;100.00
56668;BME280;42542;48.360;10.958;2023-07-13T02:30:43;96075.56;;;18.63;100.00
56668;BME280;42542;48.360;10.958;2023-07-13T02:33:46;96088.25;;;18.62;100.00
56668;BME280;42542;48.360;10.958;2023-07-13T02:36:47;96082.22;;;18.60;100.00
56668;BME280;42542;48.360;10.958;2023-07-13T02:39:50;96095.75;;;18.60;100.00
56668;BME280;42542;48.360;10.958;2023-07-13T02:42:51;96093.25;;;18.59;100.00
56668;BME280;42542;48.360;10.958;2023-07-13T02:45:54;96105.53;;;18.61;100.00
56668;BME280;42542;48.360;10.958;2023-07-13T02:48:56;96102.47;;;18.58;100.00
56668;BME280;42542;48.360;10.958;2023-07-13T02:51:59;96112.22;;;18.59;100.00
56668;BME280;42542;48.360;10.958;2023-07-13T02:55:01;96104.72;;;18.54;100.00
56668;BME280;42542;48.360;10.958;2023-07-13T02:58:05;96109.75;;;18.57;100.00
56668;BME280;42542;48.360;10.958;2023-07-13T03:01:09;96108.91;;;18.57;100.00
56668;BME280;42542;48.360;10.958;2023-07-13T03:04:14;96102.00;;;18.54;100.00
56668;BME280;42542;48.360;10.958;2023-07-13T03:07:16;96112.66;;;18.56;100.00
56668;BME280;42542;48.360;10.958;2023-07-13T03:10:23;96112.66;;;18.56;100.00
56668;BME280;42542;48.360;10.958;2023-07-13T03:13:25;96120.13;;;18.54;100.00
56668;BME280;42542;48.360;10.958;2023-07-13T03:16:29;96109.28;;;18.54;100.00
56668;BME280;42542;48.360;10.958;2023-07-13T03:19:31;96123.66;;;18.54;100.00
56668;BME280;42542;48.360;10.958;2023-07-13T03:22:33;96126.81;;;18.51;100.00
56668;BME280;42542;48.360;10.958;2023-07-13T03:25:41;96131.41;;;18.51;100.00
56668;BME280;42542;48.360;10.958;2023-07-13T03:28:44;96126.59;;;18.46;100.00
56668;BME280;42542;48.360;10.958;2023-07-13T03:31:50;96128.91;;;18.49;100.00
56668;BME280;42542;48.360;10.958;2023-07-13T03:34:55;96128.06;;;18.49;100.00
56668;BME280;42542;48.360;10.958;2023-07-13T03:37:59;96127.44;;;18.47;100.00
56668;BME280;42542;48.360;10.958;2023-07-13T03:41:05;96133.47;;;18.49;100.00
56668;BME280;42542;48.360;10.958;2023-07-13T03:44:07;96132.22;;;18.45;100.00
56668;BME280;42542;48.360;10.958;2023-07-13T03:47:12;96136.78;;;18.44;100.00
56668;BME280;42542;48.360;10.958;2023-07-13T03:50:14;96136.19;;;18.42;100.00
56668;BME280;42542;48.360;10.958;2023-07-13T03:53:17;96140.16;;;18.40;100.00
56668;BME280;42542;48.360;10.958;2023-07-13T03:56:21;96134.13;;;18.38;100.00
56668;BME280;42542;48.360;10.958;2023-07-13T03:59:25;96158.47;;;18.38;100.00
56668;BME280;42542;48.360;10.958;2023-07-13T04:02:28;96155.38;;;18.34;100.00
56668;BME280;42542;48.360;10.958;2023-07-13T04:05:36;96151.84;;;18.27;100.00
56668;BME280;42542;48.360;10.958;2023-07-13T04:08:40;96157.06;;;18.28;100.00
56668;BME280;42542;48.360;10.958;2023-07-13T04:11:43;96168.91;;;18.27;100.00
56668;BME280;42542;48.360;10.958;2023-07-13T04:14:48;96162.66;;;18.27;100.00
56668;BME280;42542;48.360;10.958;2023-07-13T04:17:51;96173.69;;;18.25;100.00
56668;BME280;42542;48.360;10.958;2023-07-13T04:20:54;96172.88;;;18.25;100.00
56668;BME280;42542;48.360;10.958;2023-07-13T04:24:00;96165.78;;;18.24;100.00
56668;BME280;42542;48.360;10.958;2023-07-13T04:27:04;96167.06;;;18.21;100.00
56668;BME280;42542;48.360;10.958;2023-07-13T04:30:06;96170.81;;;18.20;100.00
56668;BME280;42542;48.360;10.958;2023-07-13T04:33:09;96181.84;;;18.19;100.00
56668;BME280;42542;48.360;10.958;2023-07-13T04:36:15;96184.75;;;18.17;100.00
56668;BME280;42542;48.360;10.958;2023-07-13T04:39:19;96182.25;;;18.16;100.00
56668;BME280;42542;48.360;10.958;2023-07-13T04:42:22;96186.22;;;18.13;100.00
56668;BME280;42542;48.360;10.958;2023-07-13T04:45:26;96187.25;;;18.12;100.00
56668;BME280;42542;48.360;10.958;2023-07-13T04:48:28;96182.25;;;18.09;100.00
56668;BME280;42542;48.360;10.958;2023-07-13T04:51:32;96196.00;;;18.08;100.00
56668;BME280;42542;48.360;10.958;2023-07-13T04:54:36;96192.03;;;18.04;100.00
56668;BME280;42542;48.360;10.958;2023-07-13T04:57:42;96202.66;;;18.05;100.00
56668;BME280;42542;48.360;10.958;2023-07-13T05:00:47;96201.81;;;18.05;100.00
56668;BME280;42542;48.360;10.958;2023-07-13T05:03:49;96207.63;;;18.02;100.00
56668;BME280;42542;48.360;10.958;2023-07-13T05:06:52;96210.13;;;17.97;100.00
56668;BME280;42542;48.360;10.958;2023-07-13T05:09:55;96212.66;;;17.98;100.00
56668;BME280;42542;48.360;10.958;2023-07-13T05:12:58;96205.56;;;17.97;100.00
56668;BME280;42542;48.360;10.958;2023-07-13T05:16:06;96210.97;;;17.97;100.00
56668;BME280;42542;48.360;10.958;2023-07-13T05:19:11;96212.22;;;17.94;100.00
56668;BME280;42542;48.360;10.958;2023-07-13T05:22:15;96213.03;;;17.95;100.00
56668;BME280;42542;48.360;10.958;2023-07-13T05:25:18;96212.00;;;17.96;100.00
56668;BME280;42542;48.360;10.958;2023-07-13T05:28:25;96205.16;;;17.93;100.00
56668;BME280;42542;48.360;10.958;2023-07-13T05:31:33;96213.28;;;17.93;100.00
56668;BME280;42542;48.360;10.958;2023-07-13T05:34:40;96217.03;;;17.92;100.00
56668;BME280;42542;48.360;10.958;2023-07-13T05:37:43;96220.13;;;17.89;100.00
56668;BME280;42542;48.360;10.958;2023-07-13T05:40:46;96214.91;;;17.88;100.00
56668;BME280;42542;48.360;10.958;2023-07-13T05:43:50;96214.31;;;17.86;100.00
56668;BME280;42542;48.360;10.958;2023-07-13T05:46:55;96204.09;;;17.88;100.00
56668;BME280;42542;48.360;10.958;2023-07-13T05:50:01;96213.25;;;17.87;100.00
56668;BME280;42542;48.360;10.958;2023-07-13T05:53:07;96214.50;;;17.91;100.00
56668;BME280;42542;48.360;10.958;2023-07-13T05:56:10;96230.75;;;17.91;100.00
56668;BME280;42542;48.360;10.958;2023-07-13T05:59:20;96228.66;;;17.86;100.00
56668;BME280;42542;48.360;10.958;2023-07-13T06:02:22;96223.66;;;17.83;98.42
56668;BME280;42542;48.360;10.958;2023-07-13T06:05:31;96232.59;;;17.84;98.50
56668;BME280;42542;48.360;10.958;2023-07-13T06:08:33;96245.28;;;17.83;97.72
56668;BME280;42542;48.360;10.958;2023-07-13T06:11:41;96248.00;;;17.83;97.57
56668;BME280;42542;48.360;10.958;2023-07-13T06:14:44;96258.81;;;17.83;97.58
56668;BME280;42542;48.360;10.958;2023-07-13T06:17:48;96266.72;;;17.85;97.93
56668;BME280;42542;48.360;10.958;2023-07-13T06:20:50;96265.69;;;17.86;98.39
56668;BME280;42542;48.360;10.958;2023-07-13T06:23:55;96261.13;;;17.86;99.97
56668;BME280;42542;48.360;10.958;2023-07-13T06:26:59;96260.06;;;17.87;99.98
56668;BME280;42542;48.360;10.958;2023-07-13T06:30:04;96255.72;;;17.86;99.25
56668;BME280;42542;48.360;10.958;2023-07-13T06:33:11;96267.34;;;17.87;99.22
56668;BME280;42542;48.360;10.958;2023-07-13T06:36:16;96278.59;;;17.90;100.00
56668;BME280;42542;48.360;10.958;2023-07-13T06:39:19;96277.56;;;17.91;100.00
56668;BME280;42542;48.360;10.958;2023-07-13T06:42:23;96284.63;;;17.92;100.00
56668;BME280;42542;48.360;10.958;2023-07-13T06:45:27;96281.28;;;17.90;100.00
56668;BME280;42542;48.360;10.958;2023-07-13T06:48:32;96280.66;;;17.88;100.00
56668;BME280;42542;48.360;10.958;2023-07-13T06:51:35;96286.69;;;17.90;100.00
56668;BME280;42542;48.360;10.958;2023-07-13T06:54:40;96294.19;;;17.88;100.00
56668;BME280;42542;48.360;10.958;2023-07-13T06:57:46;96294.19;;;17.88;100.00
56668;BME280;42542;48.360;10.958;2023-07-13T07:00:51;96290.88;;;17.93;100.00
56668;BME280;42542;48.360;10.958;2023-07-13T07:03:59;96298.56;;;17.96;100.00
56668;BME280;42542;48.360;10.958;2023-07-13T07:07:04;96293.78;;;17.98;100.00
56668;BME280;42542;48.360;10.958;2023-07-13T07:10:08;96304.59;;;17.98;100.00
56668;BME280;42542;48.360;10.958;2023-07-13T07:13:13;96306.06;;;18.01;100.00
56668;BME280;42542;48.360;10.958;2023-07-13T07:16:18;96307.13;;;18.06;100.00
56668;BME280;42542;48.360;10.958;2023-07-13T07:19:21;96308.97;;;18.06;100.00
56668;BME280;42542;48.360;10.958;2023-07-13T07:22:31;96306.69;;;18.09;99.68
56668;BME280;42542;48.360;10.958;2023-07-13T07:25:32;96305.84;;;18.09;97.31
56668;BME280;42542;48.360;10.958;2023-07-13T07:28:40;96302.75;;;18.12;97.95
56668;BME280;42542;48.360;10.958;2023-07-13T07:31:50;96319.41;;;18.15;97.45
56668;BME280;42542;48.360;10.958;2023-07-13T07:35:07;96325.03;;;18.20;96.66
56668;BME280;42542;48.360;10.958;2023-07-13T07:38:10;96320.84;;;18.24;97.14
56668;BME280;42542;48.360;10.958;2023-07-13T07:41:16;96314.84;;;18.29;96.18
56668;BME280;42542;48.360;10.958;2023-07-13T07:44:25;96318.38;;;18.36;95.17
56668;BME280;42542;48.360;10.958;2023-07-13T07:47:33;96328.38;;;18.42;93.57
56668;BME280;42542;48.360;10.958;2023-07-13T07:50:36;96333.34;;;18.45;90.71
56668;BME280;42542;48.360;10.958;2023-07-13T07:53:39;96339.41;;;18.47;88.67
56668;BME280;42542;48.360;10.958;2023-07-13T07:56:45;96332.75;;;18.50;87.11
56668;BME280;42542;48.360;10.958;2023-07-13T08:00:13;96330.44;;;18.53;86.65
56668;BME280;42542;48.360;10.958;2023-07-13T08:03:21;96339.03;;;18.57;85.36
56668;BME280;42542;48.360;10.958;2023-07-13T08:06:26;96334.66;;;18.62;85.83
56668;BME280;42542;48.360;10.958;2023-07-13T08:09:32;96333.81;;;18.68;84.90
56668;BME280;42542;48.360;10.958;2023-07-13T08:12:36;96341.09;;;18.75;85.06
56668;BME280;42542;48.360;10.958;2023-07-13T08:15:46;96343.19;;;18.79;85.91
56668;BME280;42542;48.360;10.958;2023-07-13T08:18:51;96341.91;;;18.82;83.21
56668;BME280;42542;48.360;10.958;2023-07-13T08:21:53;96331.28;;;18.87;82.52
56668;BME280;42542;48.360;10.958;2023-07-13T08:25:02;96337.53;;;18.94;81.98
56668;BME280;42542;48.360;10.958;2023-07-13T08:28:04;96348.13;;;18.95;78.77
56668;BME280;42542;48.360;10.958;2023-07-13T08:31:08;96346.88;;;18.98;78.12
56668;BME280;42542;48.360;10.958;2023-07-13T08:34:13;96353.53;;;19.02;78.45
56668;BME280;42542;48.360;10.958;2023-07-13T08:37:19;96354.81;;;19.06;78.09
56668;BME280;42542;48.360;10.958;2023-07-13T08:40:25;96351.44;;;19.10;78.60
56668;BME280;42542;48.360;10.958;2023-07-13T08:43:35;96351.66;;;19.16;77.31
56668;BME280;42542;48.360;10.958;2023-07-13T08:46:40;96353.06;;;19.25;75.96
56668;BME280;42542;48.360;10.958;2023-07-13T08:49:44;96353.69;;;19.33;73.97
56668;BME280;42542;48.360;10.958;2023-07-13T08:52:49;96349.69;;;19.42;73.97
56668;BME280;42542;48.360;10.958;2023-07-13T08:55:57;96354.91;;;19.51;72.81
56668;BME280;42542;48.360;10.958;2023-07-13T08:59:14;96366.78;;;19.56;69.77
56668;BME280;42542;48.360;10.958;2023-07-13T09:05:42;96360.91;;;19.66;69.06
56668;BME280;42542;48.360;10.958;2023-07-13T09:09:10;96363.59;;;19.72;68.77
56668;BME280;42542;48.360;10.958;2023-07-13T09:15:42;96368.53;;;19.82;66.25
56668;BME280;42542;48.360;10.958;2023-07-13T09:18:51;96354.13;;;19.81;63.88
56668;BME280;42542;48.360;10.958;2023-07-13T09:22:01;96362.06;;;19.83;63.29
56668;BME280;42542;48.360;10.958;2023-07-13T09:25:35;96370.41;;;19.88;62.49
56668;BME280;42542;48.360;10.958;2023-07-13T09:28:48;96366.16;;;19.99;64.40
56668;BME280;42542;48.360;10.958;2023-07-13T09:31:57;96375.72;;;20.08;63.45
56668;BME280;42542;48.360;10.958;2023-07-13T09:35:10;96371.31;;;20.13;61.55
56668;BME280;42542;48.360;10.958;2023-07-13T09:38:16;96373.34;;;20.18;61.06
56668;BME280;42542;48.360;10.958;2023-07-13T09:41:51;96366.25;;;20.23;59.72
56668;BME280;42542;48.360;10.958;2023-07-13T09:45:02;96371.69;;;20.23;57.67
56668;BME280;42542;48.360;10.958;2023-07-13T09:48:15;96374.97;;;20.25;57.69
56668;BME280;42542;48.360;10.958;2023-07-13T09:51:18;96378.72;;;20.31;58.34
56668;BME280;42542;48.360;10.958;2023-07-13T09:54:24;96379.53;;;20.32;57.75
56668;BME280;42542;48.360;10.958;2023-07-13T09:57:29;96383.09;;;20.32;56.86
56668;BME280;42542;48.360;10.958;2023-07-13T10:01:02;96374.53;;;20.35;56.25
56668;BME280;42542;48.360;10.958;2023-07-13T10:04:13;96376.38;;;20.41;57.28
56668;BME280;42542;48.360;10.958;2023-07-13T10:07:22;96374.28;;;20.43;55.21
56668;BME280;42542;48.360;10.958;2023-07-13T10:10:30;96380.97;;;20.41;54.63
56668;BME280;42542;48.360;10.958;2023-07-13T10:13:37;96370.72;;;20.43;54.62
56668;BME280;42542;48.360;10.958;2023-07-13T10:16:44;96364.47;;;20.42;55.02
56668;BME280;42542;48.360;10.958;2023-07-13T10:19:47;96377.38;;;20.47;54.24
56668;BME280;42542;48.360;10.958;2023-07-13T10:25:56;96380.66;;;20.55;55.38
56668;BME280;42542;48.360;10.958;2023-07-13T10:29:04;96389.44;;;20.57;54.15
56668;BME280;42542;48.360;10.958;2023-07-13T10:32:12;96396.06;;;20.61;55.49
56668;BME280;42542;48.360;10.958;2023-07-13T10:35:18;96394.59;;;20.65;54.47
56668;BME280;42542;48.360;10.958;2023-07-13T10:38:22;96393.72;;;20.72;53.97
56668;BME280;42542;48.360;10.958;2023-07-13T10:41:26;96390.31;;;20.76;53.81
56668;BME280;42542;48.360;10.958;2023-07-13T10:44:31;96385.06;;;20.81;53.87
56668;BME280;42542;48.360;10.958;2023-07-13T10:47:33;96384.81;;;20.83;54.20
56668;BME280;42542;48.360;10.958;2023-07-13T10:50:37;96394.66;;;20.84;51.62
56668;BME280;42542;48.360;10.958;2023-07-13T10:54:21;96385.50;;;20.78;50.56
56668;BME280;42542;48.360;10.958;2023-07-13T10:57:24;96386.13;;;20.80;52.40
56668;BME280;42542;48.360;10.958;2023-07-13T11:00:26;96377.69;;;20.88;52.69
56668;BME280;42542;48.360;10.958;2023-07-13T11:03:30;96384.50;;;20.97;52.74
56668;BME280;42542;48.360;10.958;2023-07-13T11:06:41;96383.38;;;21.05;52.08
56668;BME280;42542;48.360;10.958;2023-07-13T11:09:56;96374.19;;;21.06;51.69
56668;BME280;42542;48.360;10.958;2023-07-13T11:12:59;96375.16;;;21.12;51.91
56668;BME280;42542;48.360;10.958;2023-07-13T11:16:43;96381.22;;;21.14;51.66
56668;BME280;42542;48.360;10.958;2023-07-13T11:20:09;96389.56;;;21.19;52.05
56668;BME280;42542;48.360;10.958;2023-07-13T11:29:48;96365.78;;;21.32;53.35
56668;BME280;42542;48.360;10.958;2023-07-13T11:36:30;96366.78;;;21.38;51.54
56668;BME280;42542;48.360;10.958;2023-07-13T11:39:37;96365.13;;;21.37;51.03
56668;BME280;42542;48.360;10.958;2023-07-13T11:42:50;96368.66;;;21.37;51.63
56668;BME280;42542;48.360;10.958;2023-07-13T11:45:52;96372.97;;;21.45;52.16
56668;BME280;42542;48.360;10.958;2023-07-13T11:48:54;96371.69;;;21.48;51.34
56668;BME280;42542;48.360;10.958;2023-07-13T11:51:57;96371.47;;;21.49;51.73
56668;BME280;42542;48.360;10.958;2023-07-13T11:55:01;96365.81;;;21.51;51.63
56668;BME280;42542;48.360;10.958;2023-07-13T11:58:08;96372.69;;;21.53;51.83
56668;BME280;42542;48.360;10.958;2023-07-13T12:01:20;96366.34;;;21.59;51.35
56668;BME280;42542;48.360;10.958;2023-07-13T12:04:31;96356.88;;;21.62;51.18
56668;BME280;42542;48.360;10.958;2023-07-13T12:07:36;96357.25;;;21.65;51.97
56668;BME280;42542;48.360;10.958;2023-07-13T12:10:40;96360.13;;;21.70;51.86
56668;BME280;42542;48.360;10.958;2023-07-13T12:13:47;96359.81;;;21.78;52.94
56668;BME280;42542;48.360;10.958;2023-07-13T12:16:56;96354.88;;;21.87;53.28
56668;BME280;42542;48.360;10.958;2023-07-13T12:20:21;96349.59;;;21.92;51.92
56668;BME280;42542;48.360;10.958;2023-07-13T12:23:33;96353.31;;;21.98;52.99
56668;BME280;42542;48.360;10.958;2023-07-13T12:26:42;96350.03;;;22.07;52.54
56668;BME280;42542;48.360;10.958;2023-07-13T12:33:35;96332.63;;;22.38;51.81
56668;BME280;42542;48.360;10.958;2023-07-13T12:36:48;96332.19;;;22.53;50.28
56668;BME280;42542;48.360;10.958;2023-07-13T12:39:51;96333.41;;;22.69;50.65
56668;BME280;42542;48.360;10.958;2023-07-13T12:43:10;96318.97;;;22.91;50.35
56668;BME280;42542;48.360;10.958;2023-07-13T12:46:21;96312.13;;;23.12;48.69
56668;BME280;42542;48.360;10.958;2023-07-13T12:49:28;96319.69;;;23.33;49.37
56668;BME280;42542;48.360;10.958;2023-07-13T12:52:35;96308.03;;;23.50;48.46
56668;BME280;42542;48.360;10.958;2023-07-13T12:56:02;96309.41;;;23.76;48.03
56668;BME280;42542;48.360;10.958;2023-07-13T12:59:18;96309.06;;;24.00;47.86
56668;BME280;42542;48.360;10.958;2023-07-13T13:02:32;96304.41;;;24.12;46.97
56668;BME280;42542;48.360;10.958;2023-07-13T13:05:37;96294.19;;;24.20;45.99
56668;BME280;42542;48.360;10.958;2023-07-13T13:08:41;96293.63;;;24.34;46.13
56668;BME280;42542;48.360;10.958;2023-07-13T13:11:46;96291.66;;;24.46;45.88
56668;BME280;42542;48.360;10.958;2023-07-13T13:14:50;96287.34;;;24.67;45.39
56668;BME280;42542;48.360;10.958;2023-07-13T13:17:57;96280.38;;;24.93;45.57
56668;BME280;42542;48.360;10.958;2023-07-13T13:21:01;96289.22;;;25.17;45.06
56668;BME280;42542;48.360;10.958;2023-07-13T13:24:12;96287.28;;;25.34;43.45
56668;BME280;42542;48.360;10.958;2023-07-13T13:27:18;96285.63;;;25.55;41.87
56668;BME280;42542;48.360;10.958;2023-07-13T13:30:25;96272.44;;;25.52;42.05
56668;BME280;42542;48.360;10.958;2023-07-13T13:33:29;96289.63;;;25.64;42.02
56668;BME280;42542;48.360;10.958;2023-07-13T13:36:44;96287.88;;;25.58;40.81
56668;BME280;42542;48.360;10.958;2023-07-13T13:39:51;96297.66;;;25.54;41.29
56668;BME280;42542;48.360;10.958;2023-07-13T13:43:16;96290.88;;;25.56;41.39
56668;BME280;42542;48.360;10.958;2023-07-13T13:46:22;96284.69;;;25.66;41.50
56668;BME280;42542;48.360;10.958;2023-07-13T13:49:27;96280.81;;;25.84;41.39
56668;BME280;42542;48.360;10.958;2023-07-13T13:52:29;96288.19;;;26.05;41.15
56668;BME280;42542;48.360;10.958;2023-07-13T13:55:31;96288.75;;;26.29;41.91
56668;BME280;42542;48.360;10.958;2023-07-13T13:58:33;96293.78;;;26.42;40.45
56668;BME280;42542;48.360;10.958;2023-07-13T14:01:37;96290.66;;;26.60;40.14
56668;BME280;42542;48.360;10.958;2023-07-13T14:04:39;96294.34;;;26.76;39.37
56668;BME280;42542;48.360;10.958;2023-07-13T14:07:41;96310.69;;;26.61;39.46
56668;BME280;42542;48.360;10.958;2023-07-13T14:10:51;96298.69;;;26.40;38.19
56668;BME280;42542;48.360;10.958;2023-07-13T14:13:58;96294.50;;;26.32;38.51
56668;BME280;42542;48.360;10.958;2023-07-13T14:17:04;96291.53;;;26.34;39.33
56668;BME280;42542;48.360;10.958;2023-07-13T14:20:11;96296.28;;;26.43;39.45
56668;BME280;42542;48.360;10.958;2023-07-13T14:23:15;96298.59;;;26.57;39.10
56668;BME280;42542;48.360;10.958;2023-07-13T14:26:21;96290.97;;;26.64;38.17
56668;BME280;42542;48.360;10.958;2023-07-13T14:29:26;96281.94;;;26.68;39.37
56668;BME280;42542;48.360;10.958;2023-07-13T14:32:30;96285.34;;;26.80;39.19
56668;BME280;42542;48.360;10.958;2023-07-13T14:35:31;96282.47;;;26.97;40.06
56668;BME280;42542;48.360;10.958;2023-07-13T14:38:49;96276.34;;;27.22;39.66
56668;BME280;42542;48.360;10.958;2023-07-13T14:41:55;96281.63;;;27.34;39.89
56668;BME280;42542;48.360;10.958;2023-07-13T14:44:58;96278.06;;;27.38;39.30
56668;BME280;42542;48.360;10.958;2023-07-13T14:47:59;96277.53;;;27.41;37.14
56668;BME280;42542;48.360;10.958;2023-07-13T14:51:02;96273.72;;;27.42;35.83
56668;BME280;42542;48.360;10.958;2023-07-13T14:54:10;96278.94;;;27.44;35.77
56668;BME280;42542;48.360;10.958;2023-07-13T14:57:17;96279.03;;;27.59;35.89
56668;BME280;42542;48.360;10.958;2023-07-13T15:00:24;96273.88;;;27.73;35.97
56668;BME280;42542;48.360;10.958;2023-07-13T15:03:27;96282.72;;;27.85;36.31
56668;BME280;42542;48.360;10.958;2023-07-13T15:06:29;96271.19;;;27.93;35.93
56668;BME280;42542;48.360;10.958;2023-07-13T15:09:33;96269.59;;;28.07;35.73
56668;BME280;42542;48.360;10.958;2023-07-13T15:12:37;96273.22;;;28.18;34.59
56668;BME280;42542;48.360;10.958;2023-07-13T15:15:49;96275.94;;;28.18;34.03
56668;BME280;42542;48.360;10.958;2023-07-13T15:18:58;96265.81;;;28.23;35.07
56668;BME280;42542;48.360;10.958;2023-07-13T15:22:02;96268.31;;;28.30;34.55
56668;BME280;42542;48.360;10.958;2023-07-13T15:25:16;96268.31;;;28.50;34.19
56668;BME280;42542;48.360;10.958;2023-07-13T15:28:22;96268.59;;;28.69;34.63
56668;BME280;42542;48.360;10.958;2023-07-13T15:31:27;96265.59;;;28.76;33.67
56668;BME280;42542;48.360;10.958;2023-07-13T15:34:38;96264.75;;;28.90;33.80
56668;BME280;42542;48.360;10.958;2023-07-13T15:37:48;96271.06;;;29.06;32.45
56668;BME280;42542;48.360;10.958;2023-07-13T15:40:54;96265.84;;;29.09;31.76
56668;BME280;42542;48.360;10.958;2023-07-13T15:43:59;96276.03;;;29.14;32.14
56668;BME280;42542;48.360;10.958;2023-07-13T15:47:12;96255.91;;;29.29;31.99
56668;BME280;42542;48.360;10.958;2023-07-13T15:50:23;96257.28;;;29.31;31.84
56668;BME280;42542;48.360;10.958;2023-07-13T15:53:33;96258.66;;;29.19;31.99
56668;BME280;42542;48.360;10.958;2023-07-13T15:56:38;96273.56;;;28.97;31.83
56668;BME280;42542;48.360;10.958;2023-07-13T15:59:47;96266.97;;;28.73;32.18
56668;BME280;42542;48.360;10.958;2023-07-13T16:02:50;96267.47;;;28.55;33.58
56668;BME280;42542;48.360;10.958;2023-07-13T16:05:56;96264.19;;;28.38;33.41
56668;BME280;42542;48.360;10.958;2023-07-13T16:08:58;96266.63;;;28.19;33.72
56668;BME280;42542;48.360;10.958;2023-07-13T16:12:01;96268.19;;;28.00;35.01
56668;BME280;42542;48.360;10.958;2023-07-13T16:15:15;96266.22;;;27.80;34.27
56668;BME280;42542;48.360;10.958;2023-07-13T16:18:21;96266.81;;;27.40;33.57
56668;BME280;42542;48.360;10.958;2023-07-13T16:21:26;96267.28;;;27.22;34.28
56668;BME280;42542;48.360;10.958;2023-07-13T16:24:31;96278.16;;;27.06;34.58
56668;BME280;42542;48.360;10.958;2023-07-13T16:27:35;96269.75;;;26.86;34.95
56668;BME280;42542;48.360;10.958;2023-07-13T16:30:38;96271.84;;;26.74;35.17
56668;BME280;42542;48.360;10.958;2023-07-13T16:33:40;96276.91;;;26.55;35.94
56668;BME280;42542;48.360;10.958;2023-07-13T16:36:42;96275.44;;;26.42;36.32